createdAt,value
2019-02-26T00:00:02.765Z,6.97
2019-02-26T00:02:32.617Z,6.63
2019-02-26T00:05:06.387Z,6.57
2019-02-26T00:07:35.540Z,5.70
2019-02-26T00:10:08.991Z,5.80
2019-02-26T00:12:38.128Z,6.80
2019-02-26T00:15:08.411Z,6.47
2019-02-26T00:17:43.081Z,6.40
2019-02-26T00:20:17.610Z,5.40
2019-02-26T00:22:50.221Z,7.43
2019-02-26T00:25:20.576Z,6.63
2019-02-26T00:27:52.444Z,6.63
2019-02-26T00:30:24.610Z,7.23
2019-02-26T00:32:56.128Z,6.93
2019-02-26T00:35:25.255Z,5.90
2019-02-26T00:37:55.873Z,6.63
2019-02-26T00:40:26.199Z,5.53
2019-02-26T00:42:57.538Z,6.70
2019-02-26T00:45:29.491Z,6.37
2019-02-26T00:47:58.193Z,6.53
2019-02-26T00:50:28.069Z,6.80
2019-02-26T00:52:59.421Z,5.50
2019-02-26T00:55:34.900Z,6.13
2019-02-26T00:58:05.906Z,6.50
2019-02-26T01:00:35.487Z,5.20
2019-02-26T01:03:06.028Z,6.33
2019-02-26T01:05:36.367Z,6.33
2019-02-26T01:08:12.747Z,6.70
2019-02-26T01:10:41.588Z,6.60
2019-02-26T01:13:17.284Z,6.30
2019-02-26T01:15:46.672Z,5.80
2019-02-26T01:18:15.786Z,6.27
2019-02-26T01:20:48.351Z,6.80
2019-02-26T01:23:21.459Z,7.50
2019-02-26T01:25:54.685Z,6.37
2019-02-26T01:28:24.800Z,5.30
2019-02-26T01:31:02.620Z,5.87
2019-02-26T01:33:32.122Z,5.43
2019-02-26T01:36:06.394Z,5.83
2019-02-26T01:38:39.406Z,5.50
2019-02-26T01:41:11.256Z,5.33
2019-02-26T01:43:41.574Z,5.10
2019-02-26T01:46:11.706Z,5.37
2019-02-26T01:48:41.528Z,5.67
2019-02-26T01:51:10.673Z,5.73
2019-02-26T01:53:39.820Z,5.50
2019-02-26T01:56:19.947Z,7.07
2019-02-26T01:58:56.841Z,6.37
2019-02-26T02:01:32.214Z,6.50
2019-02-26T02:04:03.950Z,5.80
2019-02-26T02:06:36.906Z,6.87
2019-02-26T02:09:15.835Z,5.60
2019-02-26T02:11:47.917Z,6.60
2019-02-26T02:14:20.076Z,5.37
2019-02-26T02:16:49.191Z,5.73
2019-02-26T02:19:22.235Z,6.23
2019-02-26T02:21:53.938Z,5.90
2019-02-26T02:24:24.567Z,5.90
2019-02-26T02:26:58.436Z,6.07
2019-02-26T02:29:28.879Z,6.43
2019-02-26T02:32:02.257Z,6.50
2019-02-26T02:34:32.661Z,6.30
2019-02-26T02:37:00.615Z,6.00
2019-02-26T02:39:29.737Z,5.70
2019-02-26T02:41:58.811Z,6.40
2019-02-26T02:44:29.328Z,5.60
2019-02-26T02:47:01.986Z,6.27
2019-02-26T02:49:38.897Z,6.70
2019-02-26T02:52:11.891Z,5.70
2019-02-26T02:54:44.130Z,6.47
2019-02-26T02:57:18.017Z,5.43
2019-02-26T02:59:47.138Z,5.87
2019-02-26T03:02:17.677Z,6.50
2019-02-26T03:04:52.315Z,5.67
2019-02-26T03:07:23.428Z,5.47
2019-02-26T03:10:06.142Z,5.60
2019-02-26T03:12:33.952Z,5.90
2019-02-26T03:15:07.987Z,4.83
2019-02-26T03:17:42.619Z,5.63
2019-02-26T03:20:13.630Z,6.23
2019-02-26T03:22:46.148Z,5.30
2019-02-26T03:25:24.347Z,5.50
2019-02-26T03:27:52.847Z,5.10
2019-02-26T03:30:31.956Z,5.10
2019-02-26T03:33:04.363Z,5.83
2019-02-26T03:35:36.408Z,6.13
2019-02-26T03:38:06.310Z,6.67
2019-02-26T03:40:36.153Z,6.00
2019-02-26T03:43:07.696Z,4.70
2019-02-26T03:45:39.550Z,5.00
2019-02-26T03:48:11.725Z,5.60
2019-02-26T03:50:44.062Z,6.20
2019-02-26T03:53:15.139Z,6.10
2019-02-26T03:55:44.599Z,5.63
2019-02-26T03:58:14.778Z,5.63
2019-02-26T04:00:46.768Z,5.40
2019-02-26T04:03:17.632Z,5.37
2019-02-26T04:05:47.154Z,5.90
2019-02-26T04:08:23.897Z,5.77
2019-02-26T04:10:53.624Z,5.70
2019-02-26T04:13:22.360Z,5.10
2019-02-26T04:15:55.978Z,5.47
2019-02-26T04:18:34.195Z,5.50
2019-02-26T04:21:05.924Z,6.20
2019-02-26T04:23:36.083Z,5.87
2019-02-26T04:27:08.320Z,5.70
2019-02-26T04:29:57.887Z,5.23
2019-02-26T04:33:17.369Z,5.87
2019-02-26T04:36:11.901Z,5.63
2019-02-26T04:39:13.631Z,5.80
2019-02-26T04:42:20.532Z,5.37
2019-02-26T04:45:45.531Z,4.93
2019-02-26T04:48:29.806Z,5.00
2019-02-26T04:51:10.303Z,5.90
2019-02-26T04:53:39.460Z,6.83
2019-02-26T04:56:12.872Z,5.53
2019-02-26T04:58:45.393Z,5.40
2019-02-26T05:01:18.882Z,5.43
2019-02-26T05:03:49.651Z,4.97
2019-02-26T05:06:20.577Z,6.27
2019-02-26T05:08:51.267Z,5.70
2019-02-26T05:11:31.394Z,5.30
2019-02-26T05:13:59.530Z,5.93
2019-02-26T05:16:31.889Z,5.90
2019-02-26T05:19:00.080Z,5.37
2019-02-26T05:21:32.614Z,5.67
2019-02-26T05:24:03.019Z,6.00
2019-02-26T05:26:33.363Z,5.57
2019-02-26T05:29:04.274Z,5.60
2019-02-26T05:31:35.837Z,6.10
2019-02-26T05:34:06.746Z,5.13
2019-02-26T05:36:40.295Z,6.00
2019-02-26T05:39:10.136Z,5.10
2019-02-26T05:41:40.447Z,5.03
2019-02-26T05:44:13.151Z,5.87
2019-02-26T05:46:42.262Z,5.90
2019-02-26T05:49:14.108Z,5.37
2019-02-26T05:51:49.208Z,5.77
2019-02-26T05:54:21.600Z,6.90
2019-02-26T05:56:51.840Z,7.80
2019-02-26T05:59:25.196Z,6.90
2019-02-26T06:01:58.373Z,7.20
2019-02-26T06:04:31.998Z,6.23
2019-02-26T06:07:02.656Z,6.87
2019-02-26T06:09:37.901Z,6.17
2019-02-26T06:12:07.979Z,6.77
2019-02-26T06:14:39.420Z,5.20
2019-02-26T06:17:13.175Z,6.00
2019-02-26T06:19:47.042Z,5.87
2019-02-26T06:22:21.319Z,6.30
2019-02-26T06:24:49.768Z,5.17
2019-02-26T06:27:21.993Z,6.43
2019-02-26T06:29:52.886Z,6.23
2019-02-26T06:32:21.471Z,5.83
2019-02-26T06:34:50.580Z,5.90
2019-02-26T06:37:23.378Z,6.20
2019-02-26T06:40:00.457Z,6.77
2019-02-26T06:42:31.564Z,5.50
2019-02-26T06:45:05.881Z,4.80
2019-02-26T06:47:36.925Z,5.93
2019-02-26T06:50:15.848Z,5.87
2019-02-26T06:52:45.383Z,5.90
2019-02-26T06:55:16.985Z,4.97
2019-02-26T06:57:47.075Z,6.07
2019-02-26T07:00:25.160Z,5.77
2019-02-26T07:02:55.658Z,6.40
2019-02-26T07:05:24.765Z,5.90
2019-02-26T07:07:55.113Z,6.23
2019-02-26T07:10:28.180Z,6.50
2019-02-26T07:12:58.048Z,6.10
2019-02-26T07:15:29.476Z,5.90
2019-02-26T07:18:04.074Z,6.30
2019-02-26T07:20:46.479Z,6.53
2019-02-26T07:23:03.417Z,5.70
2019-02-26T07:25:38.808Z,5.87
2019-02-26T07:28:07.815Z,5.30
2019-02-26T07:30:37.564Z,5.90
2019-02-26T07:33:16.193Z,6.40
2019-02-26T07:35:45.378Z,6.03
2019-02-26T07:38:20.179Z,5.40
2019-02-26T07:40:54.345Z,5.33
2019-02-26T07:43:23.438Z,6.30
2019-02-26T07:45:57.655Z,6.27
2019-02-26T07:48:31.249Z,5.50
2019-02-26T07:51:01.876Z,5.97
2019-02-26T07:53:31.922Z,5.87
2019-02-26T07:56:03.642Z,5.87
2019-02-26T07:58:38.942Z,6.13
2019-02-26T08:01:13.663Z,5.23
2019-02-26T08:03:44.041Z,5.73
2019-02-26T08:06:21.883Z,5.73
2019-02-26T08:08:52.761Z,5.80
2019-02-26T08:11:22.357Z,4.87
2019-02-26T08:13:52.390Z,5.33
2019-02-26T08:16:27.716Z,4.90
2019-02-26T08:18:59.012Z,6.30
2019-02-26T08:21:32.195Z,5.90
2019-02-26T08:24:01.665Z,5.77
2019-02-26T08:26:33.538Z,6.27
2019-02-26T08:29:05.665Z,7.33
2019-02-26T08:31:34.671Z,7.33
2019-02-26T08:34:06.684Z,7.03
2019-02-26T08:36:37.950Z,6.33
2019-02-26T08:39:08.598Z,6.67
2019-02-26T08:41:38.008Z,5.67
2019-02-26T08:44:10.663Z,6.10
2019-02-26T08:46:42.082Z,6.50
2019-02-26T08:49:11.614Z,6.53
2019-02-26T08:51:41.959Z,6.63
2019-02-26T08:54:20.354Z,7.60
2019-02-26T08:56:42.016Z,8.10
2019-02-26T08:59:17.660Z,6.20
2019-02-26T09:01:52.158Z,6.00
2019-02-26T09:04:23.795Z,7.30
2019-02-26T09:06:54.691Z,6.50
2019-02-26T09:09:27.783Z,6.50
2019-02-26T09:12:03.039Z,6.43
2019-02-26T09:14:37.589Z,7.17
2019-02-26T09:17:07.764Z,8.57
2019-02-26T09:19:38.217Z,7.13
2019-02-26T09:22:26.661Z,7.00
2019-02-26T09:25:09.337Z,7.20
2019-02-26T09:27:45.685Z,7.03
2019-02-26T09:30:16.420Z,6.87
2019-02-26T09:32:52.322Z,7.53
2019-02-26T09:35:25.302Z,6.67
2019-02-26T09:37:57.754Z,7.20
2019-02-26T09:40:37.644Z,6.03
2019-02-26T09:43:08.298Z,6.70
2019-02-26T09:45:37.408Z,5.60
2019-02-26T09:48:06.589Z,6.50
2019-02-26T09:50:38.650Z,6.80
2019-02-26T09:53:13.448Z,7.03
2019-02-26T09:55:44.455Z,5.80
2019-02-26T09:58:15.856Z,5.67
2019-02-26T10:00:46.097Z,5.63
2019-02-26T10:03:22.248Z,7.40
2019-02-26T10:05:53.205Z,6.43
2019-02-26T10:08:24.812Z,6.80
2019-02-26T10:10:57.607Z,5.87
2019-02-26T10:13:28.688Z,6.20
2019-02-26T10:15:59.283Z,6.13
2019-02-26T10:18:30.924Z,5.37
2019-02-26T10:21:03.260Z,5.30
2019-02-26T10:23:33.149Z,5.17
2019-02-26T10:26:05.762Z,5.83
2019-02-26T10:28:39.381Z,5.67
2019-02-26T10:31:10.556Z,5.60
2019-02-26T10:33:41.131Z,5.50
2019-02-26T10:36:13.480Z,5.60
2019-02-26T10:38:45.010Z,5.43
2019-02-26T10:41:16.629Z,6.03
2019-02-26T10:43:46.051Z,7.13
2019-02-26T10:46:16.320Z,5.60
2019-02-26T10:48:48.166Z,6.90
2019-02-26T10:51:18.212Z,5.90
2019-02-26T10:53:50.213Z,6.57
2019-02-26T10:56:20.546Z,5.43
2019-02-26T10:58:54.737Z,4.97
2019-02-26T11:01:27.524Z,6.20
2019-02-26T11:03:57.636Z,5.70
2019-02-26T11:06:27.817Z,5.03
2019-02-26T11:09:01.764Z,4.50
2019-02-26T11:11:35.225Z,4.70
2019-02-26T11:14:05.271Z,4.57
2019-02-26T11:16:45.077Z,3.90
2019-02-26T11:19:14.399Z,4.27
2019-02-26T11:21:47.524Z,6.73
2019-02-26T11:24:23.056Z,5.33
2019-02-26T11:26:51.798Z,5.13
2019-02-26T11:29:21.102Z,5.00
2019-02-26T11:31:54.645Z,4.67
2019-02-26T11:34:25.493Z,5.30
2019-02-26T11:36:56.109Z,5.20
2019-02-26T11:39:26.079Z,5.10
2019-02-26T11:41:56.835Z,5.50
2019-02-26T11:44:32.305Z,4.90
2019-02-26T11:47:02.943Z,4.80
2019-02-26T11:49:34.321Z,4.80
2019-02-26T11:52:04.668Z,4.37
2019-02-26T11:54:37.152Z,6.03
2019-02-26T11:57:10.286Z,5.70
2019-02-26T11:59:42.939Z,6.70
2019-02-26T12:02:13.811Z,7.37
2019-02-26T12:04:43.005Z,5.07
2019-02-26T12:07:14.329Z,5.30
2019-02-26T12:09:45.802Z,6.33
2019-02-26T12:12:18.024Z,6.70
2019-02-26T12:14:48.525Z,6.00
2019-02-26T12:17:21.346Z,5.77
2019-02-26T12:19:53.354Z,4.43
2019-02-26T12:22:30.303Z,4.70
2019-02-26T12:25:01.831Z,4.60
2019-02-26T12:27:32.122Z,4.00
2019-02-26T12:30:02.089Z,4.33
2019-02-26T12:32:33.039Z,4.00
2019-02-26T12:35:08.586Z,4.00
2019-02-26T12:37:40.587Z,4.23
2019-02-26T12:40:19.422Z,3.50
2019-02-26T12:42:48.233Z,4.60
2019-02-26T12:45:20.651Z,3.80
2019-02-26T12:47:54.500Z,3.60
2019-02-26T12:50:34.263Z,3.10
2019-02-26T12:53:04.060Z,3.50
2019-02-26T12:55:35.853Z,3.57
2019-02-26T12:58:06.824Z,2.57
2019-02-26T13:00:41.938Z,3.07
2019-02-26T13:03:25.092Z,3.33
2019-02-26T13:05:54.546Z,2.57
2019-02-26T13:08:28.922Z,2.93
2019-02-26T13:11:00.342Z,2.73
2019-02-26T13:13:31.609Z,3.40
2019-02-26T13:16:05.446Z,2.27
2019-02-26T13:21:19.864Z,3.37
2019-02-26T13:24:03.610Z,3.00
2019-02-26T13:26:38.931Z,3.50
2019-02-26T13:29:09.867Z,2.70
2019-02-26T13:31:44.815Z,3.77
2019-02-26T13:34:14.250Z,3.87
2019-02-26T13:36:52.228Z,3.20
2019-02-26T13:39:29.826Z,3.47
2019-02-26T13:41:58.587Z,3.73
2019-02-26T13:44:28.443Z,4.00
2019-02-26T13:46:58.611Z,3.23
2019-02-26T13:49:29.050Z,3.70
2019-02-26T13:52:01.244Z,2.60
2019-02-26T13:54:34.871Z,4.07
2019-02-26T13:57:05.451Z,4.03
2019-02-26T13:59:35.639Z,3.27
2019-02-26T14:02:09.597Z,3.60
2019-02-26T14:04:38.738Z,3.20
2019-02-26T14:07:07.852Z,4.50
2019-02-26T14:09:38.073Z,3.70
2019-02-26T14:12:08.416Z,3.87
2019-02-26T14:14:40.037Z,4.20
2019-02-26T14:17:09.143Z,2.50
2019-02-26T14:19:38.300Z,3.20
2019-02-26T14:22:08.015Z,3.53
2019-02-26T14:24:38.408Z,3.03
2019-02-26T14:27:08.577Z,2.87
2019-02-26T14:29:41.979Z,3.60
2019-02-26T14:32:11.510Z,2.63
2019-02-26T14:34:44.469Z,3.63
2019-02-26T14:37:16.917Z,3.80
2019-02-26T14:39:46.074Z,2.80
2019-02-26T14:42:16.946Z,3.10
2019-02-26T14:44:52.051Z,3.10
2019-02-26T14:47:21.699Z,2.40
2019-02-26T14:49:50.811Z,3.50
2019-02-26T14:52:20.174Z,3.10
2019-02-26T14:54:50.664Z,3.97
2019-02-26T14:57:20.278Z,3.70
2019-02-26T14:59:51.022Z,3.20
2019-02-26T15:02:20.144Z,4.60
2019-02-26T15:04:52.447Z,3.80
2019-02-26T15:07:22.730Z,3.47
2019-02-26T15:09:56.621Z,3.27
2019-02-26T15:12:25.742Z,3.00
2019-02-26T15:14:59.610Z,4.00
2019-02-26T15:17:32.246Z,5.37
2019-02-26T15:20:04.742Z,4.10
2019-02-26T15:22:35.534Z,4.60
2019-02-26T15:25:04.991Z,4.97
2019-02-26T15:27:38.943Z,5.27
2019-02-26T15:30:13.485Z,4.43
2019-02-26T15:32:42.898Z,4.90
2019-02-26T15:35:15.127Z,5.00
2019-02-26T15:37:48.630Z,4.53
2019-02-26T15:40:17.957Z,4.60
2019-02-26T15:42:52.440Z,4.70
2019-02-26T15:45:24.876Z,4.43
2019-02-26T15:47:55.271Z,4.90
2019-02-26T15:50:26.207Z,4.30
2019-02-26T15:52:55.443Z,4.43
2019-02-26T15:55:25.976Z,5.20
2019-02-26T15:58:03.059Z,4.43
2019-02-26T16:00:29.434Z,5.30
2019-02-26T16:02:59.420Z,5.63
2019-02-26T16:05:31.146Z,5.43
2019-02-26T16:08:06.262Z,4.93
2019-02-26T16:10:37.815Z,6.67
2019-02-26T16:13:10.448Z,5.90
2019-02-26T16:15:40.629Z,6.10
2019-02-26T16:18:09.738Z,6.70
2019-02-26T16:20:39.454Z,5.97
2019-02-26T16:23:12.633Z,6.77
2019-02-26T16:25:41.861Z,8.07
2019-02-26T16:28:11.001Z,7.63
2019-02-26T16:30:41.199Z,6.80
2019-02-26T16:33:20.303Z,7.47
2019-02-26T16:35:57.633Z,8.10
2019-02-26T16:38:29.342Z,6.60
2019-02-26T16:40:58.546Z,6.90
2019-02-26T16:43:28.615Z,7.20
2019-02-26T16:45:57.720Z,7.30
2019-02-26T16:48:26.954Z,7.60
2019-02-26T16:50:59.114Z,7.03
2019-02-26T16:53:34.320Z,7.57
2019-02-26T16:56:05.274Z,7.60
2019-02-26T16:58:35.625Z,7.33
2019-02-26T17:01:08.106Z,8.60
2019-02-26T17:03:39.001Z,8.23
2019-02-26T17:06:08.122Z,9.90
2019-02-26T17:08:37.242Z,9.53
2019-02-26T17:11:06.727Z,10.80
2019-02-26T17:13:36.573Z,8.40
2019-02-26T17:16:06.796Z,9.27
2019-02-26T17:18:40.566Z,7.77
2019-02-26T17:21:16.898Z,8.23
2019-02-26T17:23:47.115Z,7.90
2019-02-26T17:26:16.902Z,7.73
2019-02-26T17:28:48.853Z,7.10
2019-02-26T17:31:18.011Z,7.03
2019-02-26T17:33:51.277Z,6.30
2019-02-26T17:36:22.797Z,7.50
2019-02-26T17:39:07.176Z,6.20
2019-02-26T17:41:28.753Z,7.50
2019-02-26T17:44:07.092Z,6.73
2019-02-26T17:46:36.568Z,6.20
2019-02-26T17:49:08.469Z,10.80
2019-02-26T17:51:38.586Z,6.73
2019-02-26T17:54:12.165Z,5.57
2019-02-26T17:56:42.195Z,5.53
2019-02-26T17:59:11.398Z,6.27
2019-02-26T18:01:40.518Z,6.53
2019-02-26T18:04:09.592Z,5.70
2019-02-26T18:06:42.809Z,7.70
2019-02-26T18:09:09.990Z,5.63
2019-02-26T18:11:40.341Z,6.60
2019-02-26T18:14:10.834Z,6.17
2019-02-26T18:16:41.627Z,5.50
2019-02-26T18:19:12.404Z,5.13
2019-02-26T18:22:04.138Z,5.90
2019-02-26T18:24:33.440Z,4.90
2019-02-26T18:27:02.544Z,4.67
2019-02-26T18:29:34.175Z,5.13
2019-02-26T18:32:11.703Z,4.97
2019-02-26T18:34:43.236Z,5.50
2019-02-26T18:37:12.354Z,5.30
2019-02-26T18:39:41.511Z,6.30
2019-02-26T18:42:15.594Z,6.30
2019-02-26T18:44:44.746Z,8.17
2019-02-26T18:47:13.837Z,8.80
2019-02-26T18:49:45.645Z,9.27
2019-02-26T18:52:14.748Z,6.63
2019-02-26T18:54:45.117Z,6.93
2019-02-26T18:57:15.083Z,6.43
2019-02-26T18:59:44.791Z,5.77
2019-02-26T19:02:14.246Z,5.20
2019-02-26T19:04:48.792Z,5.83
2019-02-26T19:07:22.684Z,4.60
2019-02-26T19:09:52.096Z,5.67
2019-02-26T19:12:32.179Z,5.57
2019-02-26T19:15:01.660Z,5.87
2019-02-26T19:17:31.628Z,5.30
2019-02-26T19:20:02.686Z,5.33
2019-02-26T19:22:33.222Z,4.67
2019-02-26T19:25:02.510Z,8.10
2019-02-26T19:27:32.967Z,6.30
2019-02-26T19:30:04.572Z,5.90
2019-02-26T19:32:35.557Z,4.93
2019-02-26T19:35:12.206Z,5.87
2019-02-26T19:37:39.198Z,5.93
2019-02-26T19:40:13.825Z,5.83
2019-02-26T19:42:42.949Z,6.03
2019-02-26T19:45:16.008Z,5.50
2019-02-26T19:47:45.123Z,5.40
2019-02-26T19:50:16.008Z,4.93
2019-02-26T19:52:56.600Z,4.93
2019-02-26T19:55:25.951Z,6.40
2019-02-26T19:57:58.276Z,5.50
2019-02-26T20:00:27.375Z,5.07
2019-02-26T20:02:59.898Z,4.83
2019-02-26T20:05:31.477Z,5.10
2019-02-26T20:08:04.905Z,6.60
2019-02-26T20:10:35.427Z,6.37
2019-02-26T20:13:12.455Z,4.60
2019-02-26T20:15:41.747Z,6.03
2019-02-26T20:18:20.198Z,4.87
2019-02-26T20:20:52.128Z,10.47
2019-02-26T20:23:23.302Z,14.43
2019-02-26T20:25:52.465Z,10.80
2019-02-26T20:28:23.989Z,10.30
2019-02-26T20:30:53.109Z,10.80
2019-02-26T20:33:22.349Z,16.13
2019-02-26T20:35:51.431Z,16.43
2019-02-26T20:38:22.152Z,17.27
2019-02-26T20:40:51.553Z,18.20
2019-02-26T20:43:21.843Z,17.57
2019-02-26T20:45:52.682Z,17.70
2019-02-26T20:48:23.550Z,14.20
2019-02-26T20:51:01.452Z,14.83
2019-02-26T20:53:38.582Z,22.93
2019-02-26T20:56:05.513Z,15.43
2019-02-26T20:58:34.707Z,14.43
2019-02-26T21:01:05.708Z,15.73
2019-02-26T21:03:34.908Z,12.73
2019-02-26T21:06:05.301Z,11.63
2019-02-26T21:08:40.791Z,13.13
2019-02-26T21:11:10.028Z,13.00
2019-02-26T21:13:42.203Z,12.37
2019-02-26T21:16:11.597Z,12.50
2019-02-26T21:18:42.484Z,11.23
2019-02-26T21:21:16.559Z,12.10
2019-02-26T21:23:48.428Z,10.90
2019-02-26T21:26:19.674Z,9.50
2019-02-26T21:28:48.632Z,10.13
2019-02-26T21:31:22.421Z,8.80
2019-02-26T21:33:51.615Z,8.70
2019-02-26T21:36:20.728Z,13.87
2019-02-26T21:38:49.873Z,13.20
2019-02-26T21:41:23.150Z,9.70
2019-02-26T21:43:50.993Z,7.80
2019-02-26T21:46:22.550Z,12.80
2019-02-26T21:48:51.707Z,11.77
2019-02-26T21:51:21.060Z,9.27
2019-02-26T21:53:50.150Z,8.77
2019-02-26T21:56:19.284Z,7.63
2019-02-26T21:58:48.361Z,7.43
2019-02-26T22:01:20.003Z,7.50
2019-02-26T22:03:52.296Z,7.43
2019-02-26T22:06:21.392Z,8.63
2019-02-26T22:08:50.502Z,6.97
2019-02-26T22:11:21.382Z,7.47
2019-02-26T22:13:50.478Z,5.90
2019-02-26T22:16:19.614Z,5.90
2019-02-26T22:18:48.728Z,6.20
2019-02-26T22:21:19.658Z,5.80
2019-02-26T22:23:48.862Z,8.90
2019-02-26T22:26:18.051Z,5.87
2019-02-26T22:28:47.168Z,6.90
2019-02-26T22:31:16.291Z,5.10
2019-02-26T22:33:46.361Z,5.63
2019-02-26T22:36:18.280Z,6.33
2019-02-26T22:38:49.831Z,7.30
2019-02-26T22:41:25.149Z,5.70
2019-02-26T22:43:55.247Z,6.63
2019-02-26T22:46:25.619Z,5.27
2019-02-26T22:48:57.312Z,6.13
2019-02-26T22:51:29.459Z,6.80
2019-02-26T22:54:00.332Z,7.00
2019-02-26T22:56:33.922Z,10.00
2019-02-26T22:59:08.005Z,9.40
2019-02-26T23:01:48.739Z,8.97
2019-02-26T23:04:19.659Z,9.90
2019-02-26T23:06:48.780Z,9.80
2019-02-26T23:09:23.784Z,8.90
2019-02-26T23:11:54.763Z,10.30
2019-02-26T23:14:23.992Z,10.60
2019-02-26T23:16:53.108Z,11.30
2019-02-26T23:19:25.134Z,10.83
2019-02-26T23:21:54.238Z,8.47
2019-02-26T23:24:27.724Z,8.80
2019-02-26T23:26:54.678Z,8.83
2019-02-26T23:29:27.801Z,8.10
2019-02-26T23:31:56.832Z,8.27
2019-02-26T23:34:25.951Z,8.83
2019-02-26T23:37:00.658Z,7.30
2019-02-26T23:39:31.964Z,7.90
2019-02-26T23:42:06.126Z,7.17
2019-02-26T23:44:35.776Z,7.40
2019-02-26T23:47:06.051Z,6.57
2019-02-26T23:49:36.561Z,7.07
2019-02-26T23:52:10.899Z,5.97
2019-02-26T23:54:40.491Z,7.07
2019-02-26T23:57:09.752Z,7.00
2019-02-26T23:59:48.071Z,7.47
